Time;durP1;ratioP1;P1;durP2;ratioP2;P2;SDS_P1;SDS_P2;PMS_P1;PMS_P2;Temp;Humidity;BMP_temperature;BMP_pressure;BME280_temperature;BME280_humidity;BME280_pressure;Samples;Min_cycle;Max_cycle;Signal;HPM_P1;HPM_P2
2021/04/14 00:00:33;;;;;;;29.80;15.25;;;;;;;0.80;79.81;101260.88;4973138;28;20074;-69
2021/04/14 00:03:00;;;;;;;22.10;12.82;;;;;;;0.73;80.42;101263.25;4986061;28;20038;-69
2021/04/14 00:05:31;;;;;;;27.00;15.45;;;;;;;0.71;80.97;101254.59;4980012;28;20117;-68
2021/04/14 00:07:57;;;;;;;30.48;15.40;;;;;;;0.70;80.62;101264.38;4990682;28;20066;-68
2021/04/14 00:10:29;;;;;;;45.30;20.67;;;;;;;0.73;80.88;101260.59;4977540;28;20053;-68
2021/04/14 00:12:55;;;;;;;24.92;14.77;;;;;;;0.93;80.59;101260.59;4972129;28;20030;-69
2021/04/14 00:15:30;;;;;;;20.17;13.05;;;;;;;1.05;80.42;101261.28;4985690;28;20121;-69
2021/04/14 00:17:56;;;;;;;22.23;13.18;;;;;;;1.09;80.08;101260.00;4963775;28;20022;-69
2021/04/14 00:20:22;;;;;;;17.90;12.27;;;;;;;1.08;79.96;101258.31;4972004;28;20498;-69
2021/04/14 00:22:48;;;;;;;24.92;14.18;;;;;;;1.06;79.49;101253.19;4981436;28;20049;-73
2021/04/14 00:25:20;;;;;;;26.23;13.95;;;;;;;1.15;79.57;101267.41;4977677;28;20042;-69
2021/04/14 00:27:46;;;;;;;24.65;14.50;;;;;;;1.28;79.18;101257.31;4975745;28;20031;-68
2021/04/14 00:30:13;;;;;;;36.13;18.55;;;;;;;1.39;78.43;101258.13;4985758;28;20033;-69
2021/04/14 00:32:39;;;;;;;24.45;14.05;;;;;;;1.44;78.73;101254.06;4995320;28;20058;-68
2021/04/14 00:35:05;;;;;;;23.77;14.35;;;;;;;1.50;77.49;101257.13;4991864;28;20489;-68
2021/04/14 00:37:31;;;;;;;44.17;19.58;;;;;;;1.66;77.62;101256.47;4987765;28;20026;-69
2021/04/14 00:39:57;;;;;;;23.27;14.32;;;;;;;1.59;78.60;101257.06;4978090;28;20444;-69
2021/04/14 00:42:24;;;;;;;27.63;14.82;;;;;;;1.57;79.38;101253.72;4995055;28;20104;-69
2021/04/14 00:44:50;;;;;;;27.88;17.13;;;;;;;1.61;78.87;101256.94;4991278;28;20472;-69
2021/04/14 00:47:17;;;;;;;30.58;15.82;;;;;;;1.57;79.49;101245.75;4977051;28;20763;-69
2021/04/14 00:49:45;;;;;;;39.92;17.98;;;;;;;1.65;78.33;101245.03;4980617;28;20061;-69
2021/04/14 00:52:11;;;;;;;40.63;18.73;;;;;;;1.64;78.98;101243.34;4986536;28;20547;-68
2021/04/14 00:54:36;;;;;;;33.72;17.52;;;;;;;1.65;79.22;101236.22;4988427;28;20034;-69
2021/04/14 00:57:02;;;;;;;65.75;29.60;;;;;;;1.74;78.45;101236.19;4987867;28;20399;-68
2021/04/14 00:59:28;;;;;;;53.30;24.27;;;;;;;1.82;77.72;101238.09;4985223;28;20501;-67
2021/04/14 01:01:54;;;;;;;34.50;18.13;;;;;;;1.77;78.39;101237.72;4984979;28;20038;-68
2021/04/14 01:04:20;;;;;;;46.30;23.13;;;;;;;1.92;77.92;101234.56;4991758;28;20038;-67
2021/04/14 01:06:45;;;;;;;56.85;27.85;;;;;;;2.05;77.46;101238.53;4986697;28;20172;-67
2021/04/14 01:09:11;;;;;;;55.88;25.73;;;;;;;2.17;76.75;101235.66;4959648;28;20035;-67
2021/04/14 01:11:37;;;;;;;42.38;22.00;;;;;;;2.23;76.74;101234.22;4984422;28;20443;-68
2021/04/14 01:14:03;;;;;;;41.33;21.55;;;;;;;2.10;76.31;101232.78;4976378;28;20046;-68
2021/04/14 01:16:28;;;;;;;53.42;24.30;;;;;;;1.96;77.24;101239.41;4987147;28;20035;-68
2021/04/14 01:18:54;;;;;;;42.45;21.90;;;;;;;1.83;77.57;101234.47;4976549;28;20054;-68
2021/04/14 01:21:42;;;;;;;41.25;22.48;;;;;;;1.78;77.73;101235.88;4997224;28;20031;-68
2021/04/14 01:24:10;;;;;;;34.78;18.90;;;;;;;1.74;78.22;101240.63;4987564;28;20038;-68
2021/04/14 01:26:35;;;;;;;39.00;21.50;;;;;;;1.66;79.20;101248.50;4985120;28;20146;-69
2021/04/14 01:29:01;;;;;;;42.28;19.85;;;;;;;1.56;79.97;101244.06;4967912;28;20113;-68
2021/04/14 01:31:36;;;;;;;38.60;20.67;;;;;;;1.55;80.21;101249.53;4977063;28;20436;-69
2021/04/14 01:34:13;;;;;;;37.08;20.00;;;;;;;1.55;79.42;101249.53;4984544;28;20046;-67
2021/04/14 01:36:39;;;;;;;38.72;21.20;;;;;;;1.53;79.98;101254.16;4974070;28;20040;-67
2021/04/14 01:39:07;;;;;;;35.17;18.88;;;;;;;1.45;79.28;101241.59;4974778;28;20117;-68
2021/04/14 01:41:33;;;;;;;36.97;19.30;;;;;;;1.26;80.20;101243.34;4993858;28;20047;-68
2021/04/14 01:43:59;;;;;;;40.28;18.95;;;;;;;1.10;80.71;101261.69;4987740;28;20065;-69
2021/04/14 01:46:24;;;;;;;29.25;17.08;;;;;;;1.05;81.02;101251.50;4994859;28;20061;-68
2021/04/14 01:48:50;;;;;;;22.85;14.63;;;;;;;1.11;81.16;101256.25;4981082;28;20039;-72
2021/04/14 01:51:16;;;;;;;31.08;18.77;;;;;;;1.15;81.01;101252.31;4985123;28;20523;-69
2021/04/14 01:53:42;;;;;;;26.23;14.90;;;;;;;1.04;80.10;101252.50;4991054;28;20130;-69
2021/04/14 01:56:08;;;;;;;34.10;17.58;;;;;;;1.00;81.26;101253.75;4997592;28;20045;-68
2021/04/14 01:58:33;;;;;;;26.42;15.93;;;;;;;0.83;81.46;101260.59;4988354;28;20027;-69
2021/04/14 02:01:02;;;;;;;29.73;17.55;;;;;;;0.77;81.28;101253.22;4977356;28;20467;-68
2021/04/14 02:03:31;;;;;;;38.35;17.42;;;;;;;0.76;81.53;101262.13;4972610;28;20034;-68
2021/04/14 02:05:58;;;;;;;29.63;17.05;;;;;;;0.64;81.00;101256.97;4990654;28;20065;-68
2021/04/14 02:08:23;;;;;;;27.00;17.38;;;;;;;0.43;82.12;101250.00;4988328;28;20262;-68
2021/04/14 02:10:51;;;;;;;32.00;17.98;;;;;;;0.29;82.54;101256.53;4982958;28;20050;-69
2021/04/14 02:13:22;;;;;;;35.35;17.38;;;;;;;0.21;82.75;101260.84;4977890;28;20030;-69
2021/04/14 02:15:49;;;;;;;26.33;17.27;;;;;;;0.13;83.03;101264.19;4973993;28;20034;-69
2021/04/14 02:18:15;;;;;;;24.48;16.58;;;;;;;0.10;83.09;101264.44;4991004;28;20631;-69
2021/04/14 02:20:41;;;;;;;29.45;18.05;;;;;;;0.07;83.60;101267.38;4994908;28;20146;-69
2021/04/14 02:23:25;;;;;;;31.48;16.45;;;;;;;0.10;83.23;101270.59;4992960;28;20030;-69
2021/04/14 02:26:02;;;;;;;27.27;16.85;;;;;;;0.18;83.33;101271.72;4976600;28;20054;-70
2021/04/14 02:28:28;;;;;;;23.83;15.57;;;;;;;0.21;83.34;101264.31;5004388;28;20475;-67
2021/04/14 02:30:54;;;;;;;28.27;17.05;;;;;;;0.14;83.39;101256.09;4989517;28;20030;-67
2021/04/14 02:33:20;;;;;;;25.27;15.90;;;;;;;0.07;82.97;101267.38;5013474;28;20057;-67
2021/04/14 02:35:47;;;;;;;22.08;15.57;;;;;;;0.00;83.32;101267.09;4990176;28;20070;-67
2021/04/14 02:38:14;;;;;;;22.48;15.90;;;;;;;-0.07;83.99;101258.84;4973372;28;20121;-67
2021/04/14 02:40:40;;;;;;;29.67;18.60;;;;;;;-0.02;84.45;101264.56;4989353;28;20084;-67
2021/04/14 02:43:06;;;;;;;31.60;16.67;;;;;;;0.07;82.60;101265.56;4985788;28;20030;-70
2021/04/14 02:45:34;;;;;;;31.13;17.13;;;;;;;0.12;82.90;101262.50;4996824;28;20034;-67
2021/04/14 02:48:00;;;;;;;23.15;15.93;;;;;;;-0.07;82.95;101266.78;4986640;28;20110;-68
2021/04/14 02:50:26;;;;;;;24.95;16.52;;;;;;;-0.20;84.02;101267.00;4988473;28;20109;-68
2021/04/14 02:52:53;;;;;;;23.95;15.90;;;;;;;-0.30;84.00;101268.78;4993505;28;20065;-67
2021/04/14 02:55:20;;;;;;;23.02;16.73;;;;;;;-0.32;84.12;101262.78;4991440;28;20031;-70
2021/04/14 02:57:46;;;;;;;34.10;18.95;;;;;;;-0.42;84.70;101257.47;4993645;28;20053;-70
2021/04/14 03:00:14;;;;;;;28.60;19.52;;;;;;;-0.47;85.28;101268.44;4984959;28;20471;-69
2021/04/14 03:02:40;;;;;;;30.08;19.95;;;;;;;-0.38;85.74;101264.16;4986421;28;20042;-69
2021/04/14 03:05:08;;;;;;;25.75;18.35;;;;;;;-0.28;86.11;101260.72;4984973;28;20104;-69
2021/04/14 03:07:34;;;;;;;30.67;18.10;;;;;;;-0.26;85.70;101264.88;4988565;28;20056;-69
2021/04/14 03:10:00;;;;;;;26.17;17.75;;;;;;;-0.28;84.99;101266.00;4992635;28;20396;-69
2021/04/14 03:12:26;;;;;;;28.42;17.48;;;;;;;-0.35;85.45;101269.19;4987564;28;20034;-70
2021/04/14 03:14:52;;;;;;;26.67;18.65;;;;;;;-0.36;85.13;101264.00;4984223;28;20022;-67
2021/04/14 03:17:17;;;;;;;33.17;19.30;;;;;;;-0.31;84.72;101261.81;4985007;28;20432;-67
2021/04/14 03:19:43;;;;;;;33.10;18.98;;;;;;;-0.43;84.14;101265.53;4977976;28;20038;-67
2021/04/14 03:22:09;;;;;;;32.90;19.25;;;;;;;-0.46;84.91;101256.88;4988656;28;20171;-67
2021/04/14 03:24:34;;;;;;;36.97;20.23;;;;;;;-0.42;84.45;101268.06;4992180;28;20034;-67
2021/04/14 03:27:00;;;;;;;24.38;17.13;;;;;;;-0.61;84.04;101269.63;4987609;28;20484;-68
2021/04/14 03:29:25;;;;;;;25.00;17.65;;;;;;;-0.71;84.82;101268.75;4975786;28;20037;-68
2021/04/14 03:31:51;;;;;;;29.38;18.67;;;;;;;-0.86;84.70;101262.09;4987279;28;20034;-68
2021/04/14 03:34:17;;;;;;;29.17;18.48;;;;;;;-0.97;85.45;101269.13;4997215;28;20030;-68
2021/04/14 03:36:42;;;;;;;31.40;19.80;;;;;;;-1.00;85.75;101264.09;4987482;28;20042;-68
2021/04/14 03:39:08;;;;;;;33.42;20.05;;;;;;;-1.08;85.82;101263.88;4978209;28;20868;-68
2021/04/14 03:41:34;;;;;;;32.33;19.95;;;;;;;-1.08;85.58;101262.09;5004771;28;20037;-68
2021/04/14 03:44:00;;;;;;;29.45;18.90;;;;;;;-1.16;85.82;101264.53;5001471;28;20053;-69
2021/04/14 03:46:27;;;;;;;30.02;18.48;;;;;;;-1.25;86.07;101263.50;4988832;28;20477;-69
2021/04/14 03:48:53;;;;;;;36.25;21.13;;;;;;;-1.16;85.76;101272.47;4977893;28;20039;-69
2021/04/14 03:51:21;;;;;;;32.50;21.15;;;;;;;-1.21;86.29;101262.28;4972246;28;20404;-69
2021/04/14 03:53:47;;;;;;;34.35;20.27;;;;;;;-1.19;86.10;101264.81;4978554;28;20031;-69
2021/04/14 03:56:14;;;;;;;25.48;16.60;;;;;;;-1.22;85.99;101260.59;4993330;28;20450;-69
2021/04/14 03:58:44;;;;;;;32.00;20.02;;;;;;;-1.26;86.51;101269.75;4994725;28;20472;-70
2021/04/14 04:01:14;;;;;;;31.17;19.70;;;;;;;-1.31;86.40;101264.00;4989512;28;20050;-69
2021/04/14 04:03:40;;;;;;;31.48;21.65;;;;;;;-1.33;86.80;101263.28;4977228;28;20027;-69
2021/04/14 04:06:06;;;;;;;41.78;21.67;;;;;;;-1.33;87.14;101265.94;4989397;28;20044;-69
2021/04/14 04:08:32;;;;;;;30.83;19.95;;;;;;;-1.35;86.86;101266.06;4992950;28;20113;-69
2021/04/14 04:10:58;;;;;;;34.88;19.70;;;;;;;-1.41;87.13;101261.28;4993320;28;20030;-68
2021/04/14 04:13:24;;;;;;;31.95;21.13;;;;;;;-1.41;87.02;101261.28;4978970;28;20049;-69
2021/04/14 04:15:50;;;;;;;31.38;21.75;;;;;;;-1.43;87.10;101267.66;4995118;28;20037;-69
2021/04/14 04:18:15;;;;;;;36.95;22.95;;;;;;;-1.44;87.07;101271.25;4980453;28;20114;-69
2021/04/14 04:20:42;;;;;;;43.92;23.63;;;;;;;-1.41;87.05;101263.94;4979623;28;20026;-69
2021/04/14 04:23:08;;;;;;;35.95;19.15;;;;;;;-1.44;87.29;101272.13;4984237;28;20037;-68
2021/04/14 04:25:35;;;;;;;39.40;23.58;;;;;;;-1.32;86.51;101270.25;4975816;28;20042;-69
2021/04/14 04:28:01;;;;;;;34.05;21.42;;;;;;;-1.26;86.91;101267.09;4993420;28;20041;-68
2021/04/14 04:30:28;;;;;;;37.50;22.42;;;;;;;-1.22;86.20;101270.34;4991777;28;20049;-68
2021/04/14 04:32:55;;;;;;;32.92;21.90;;;;;;;-1.19;86.63;101262.97;4984843;28;20059;-69
2021/04/14 04:35:21;;;;;;;33.70;21.85;;;;;;;-1.18;86.98;101263.84;4988121;28;20065;-69
2021/04/14 04:37:47;;;;;;;37.63;23.48;;;;;;;-1.15;86.99;101268.00;4990824;28;20038;-69
2021/04/14 04:40:13;;;;;;;38.53;22.85;;;;;;;-1.18;87.05;101267.31;5003046;28;20113;-69
2021/04/14 04:42:39;;;;;;;34.13;22.90;;;;;;;-1.19;87.24;101267.44;4995151;28;20034;-69
2021/04/14 04:45:08;;;;;;;33.58;22.70;;;;;;;-1.15;86.35;101266.22;4998926;28;20423;-69
2021/04/14 04:47:34;;;;;;;34.83;21.42;;;;;;;-1.15;86.99;101275.94;4994859;28;20034;-69
2021/04/14 04:50:00;;;;;;;39.17;24.00;;;;;;;-1.06;86.84;101280.47;4992078;28;20066;-69
2021/04/14 04:52:26;;;;;;;37.72;24.77;;;;;;;-1.03;86.70;101280.22;4999704;28;20065;-70
2021/04/14 04:54:55;;;;;;;37.78;23.42;;;;;;;-1.09;86.47;101286.88;4997044;28;20432;-70
2021/04/14 04:57:20;;;;;;;35.22;23.23;;;;;;;-1.06;86.21;101283.97;4999676;28;21301;-68
2021/04/14 04:59:46;;;;;;;37.55;22.73;;;;;;;-1.09;86.46;101286.88;4995497;28;20049;-68
2021/04/14 05:02:15;;;;;;;39.08;24.55;;;;;;;-1.01;86.49;101290.69;4995226;28;20414;-67
2021/04/14 05:04:41;;;;;;;38.15;24.08;;;;;;;-1.05;86.38;101287.44;4984376;28;20502;-68
2021/04/14 05:07:07;;;;;;;30.75;20.95;;;;;;;-1.09;86.52;101288.66;4976563;28;20035;-68
2021/04/14 05:09:32;;;;;;;30.55;20.33;;;;;;;-1.13;86.33;101292.53;4983962;28;20467;-67
2021/04/14 05:11:58;;;;;;;32.35;21.70;;;;;;;-1.18;86.52;101292.91;5008404;28;20036;-72
2021/04/14 05:14:24;;;;;;;37.05;24.75;;;;;;;-1.22;87.54;101292.31;5000893;28;20121;-69
2021/04/14 05:16:49;;;;;;;46.90;24.65;;;;;;;-1.22;87.08;101302.06;4984795;28;20035;-69
2021/04/14 05:19:16;;;;;;;37.47;23.48;;;;;;;-1.23;87.43;101300.41;4980156;28;20043;-70
2021/04/14 05:21:42;;;;;;;41.58;26.25;;;;;;;-1.15;87.64;101302.38;4987091;28;20088;-69
2021/04/14 05:24:09;;;;;;;39.95;25.38;;;;;;;-1.10;87.96;101310.78;4983814;28;20069;-68
2021/04/14 05:26:35;;;;;;;51.10;29.65;;;;;;;-0.87;87.85;101308.88;4981831;28;20509;-69
2021/04/14 05:29:03;;;;;;;42.38;26.05;;;;;;;-0.76;87.12;101310.63;4984696;28;20092;-69
2021/04/14 05:31:30;;;;;;;45.80;27.23;;;;;;;-0.65;87.22;101309.72;4983605;28;20030;-69
2021/04/14 05:33:56;;;;;;;50.35;27.45;;;;;;;-0.63;86.84;101313.06;4997323;28;20038;-69
2021/04/14 05:36:23;;;;;;;39.95;25.83;;;;;;;-0.63;86.24;101321.84;4987279;28;20550;-69
2021/04/14 05:38:50;;;;;;;33.08;21.77;;;;;;;-0.74;85.61;101317.47;4992556;28;20125;-66
2021/04/14 05:41:16;;;;;;;39.15;23.73;;;;;;;-0.83;85.89;101322.69;5003485;28;20046;-68
2021/04/14 05:43:42;;;;;;;37.50;23.90;;;;;;;-0.86;86.25;101318.50;5001770;28;20394;-68
2021/04/14 05:46:11;;;;;;;36.55;22.83;;;;;;;-0.81;86.08;101321.59;4989990;28;20043;-68
2021/04/14 05:48:38;;;;;;;34.88;22.38;;;;;;;-0.74;86.42;101329.84;4977644;28;20117;-68
2021/04/14 05:51:06;;;;;;;33.78;22.63;;;;;;;-0.68;86.37;101332.00;4999140;28;20031;-68
2021/04/14 05:53:33;;;;;;;44.58;25.35;;;;;;;-0.48;86.36;101337.41;4647201;28;9999712;-67
2021/04/14 05:56:00;;;;;;;32.92;22.80;;;;;;;-0.51;85.89;101333.19;4983449;28;20030;-67
2021/04/14 05:58:27;;;;;;;41.13;24.17;;;;;;;-0.49;85.79;101339.19;4988209;28;20492;-67
2021/04/14 06:00:53;;;;;;;44.55;29.17;;;;;;;-0.28;87.59;101346.28;4990226;28;20061;-67
2021/04/14 06:03:19;;;;;;;44.42;27.58;;;;;;;-0.15;87.35;101348.72;4975805;28;20660;-67
2021/04/14 06:05:44;;;;;;;40.90;27.30;;;;;;;-0.10;86.72;101348.31;4987047;28;20038;-67
2021/04/14 06:08:10;;;;;;;52.72;32.05;;;;;;;0.20;88.01;101349.28;4982668;28;20071;-67
2021/04/14 06:10:35;;;;;;;52.25;33.40;;;;;;;0.65;86.67;101358.56;4987160;28;20065;-68
2021/04/14 06:13:01;;;;;;;50.72;29.00;;;;;;;0.73;86.23;101362.22;4978565;28;20559;-65
2021/04/14 06:15:31;;;;;;;50.45;30.58;;;;;;;0.99;85.93;101364.34;4994869;28;20038;-65
2021/04/14 06:17:57;;;;;;;48.20;29.17;;;;;;;1.13;85.05;101357.78;4985965;28;20041;-65
2021/04/14 06:20:24;;;;;;;52.47;30.17;;;;;;;1.31;85.39;101357.06;4981199;28;20845;-65
2021/04/14 06:22:51;;;;;;;44.78;28.52;;;;;;;1.44;84.44;101362.06;4987564;28;20030;-66
2021/04/14 06:25:18;;;;;;;42.65;26.52;;;;;;;1.60;84.18;101364.16;4984545;28;20140;-67
2021/04/14 06:27:59;;;;;;;38.95;26.77;;;;;;;1.65;83.56;101367.22;4974132;28;20482;-68
2021/04/14 06:30:25;;;;;;;40.95;26.23;;;;;;;1.81;83.23;101374.59;4980608;28;20030;-67
2021/04/14 06:32:51;;;;;;;38.60;26.20;;;;;;;1.92;82.97;101376.22;4990897;28;20031;-67
2021/04/14 06:35:18;;;;;;;43.25;25.95;;;;;;;1.99;82.69;101373.81;4992540;28;20408;-67
2021/04/14 06:37:44;;;;;;;39.05;24.27;;;;;;;2.09;82.26;101379.94;4982673;28;20402;-67
2021/04/14 06:43:12;;;;;;;31.77;23.02;;;;;;;2.33;81.50;101384.72;4990063;28;20480;-67
2021/04/14 06:46:00;;;;;;;39.60;22.75;;;;;;;2.49;81.08;101380.56;4992139;28;20492;-67
2021/04/14 06:48:44;;;;;;;29.52;21.08;;;;;;;2.56;80.39;101376.31;4986815;28;20034;-66
2021/04/14 06:51:32;;;;;;;31.88;22.00;;;;;;;2.72;79.54;101383.66;4998058;28;20030;-67
2021/04/14 06:54:14;;;;;;;31.42;20.60;;;;;;;2.87;79.28;101376.00;4999854;28;20025;-67
2021/04/14 06:56:40;;;;;;;30.70;21.02;;;;;;;2.84;79.10;101380.78;4995609;28;20052;-67
2021/04/14 06:59:11;;;;;;;31.13;20.15;;;;;;;2.84;78.49;101383.44;4991373;28;20035;-67
2021/04/14 07:01:41;;;;;;;28.90;20.50;;;;;;;2.91;78.71;101382.72;5001302;28;20026;-67
2021/04/14 07:04:13;;;;;;;30.15;19.42;;;;;;;2.81;78.67;101384.59;4994227;28;20125;-66
2021/04/14 07:06:43;;;;;;;33.40;20.88;;;;;;;2.89;78.98;101383.84;4992418;28;20044;-66
2021/04/14 07:09:20;;;;;;;29.70;20.02;;;;;;;2.86;79.13;101382.31;4996111;28;20073;-67
2021/04/14 07:11:46;;;;;;;32.45;20.23;;;;;;;2.86;78.86;101381.47;4993919;28;20038;-66
2021/04/14 07:14:14;;;;;;;34.72;18.60;;;;;;;2.94;77.93;101381.53;4992001;28;20038;-66
2021/04/14 07:16:43;;;;;;;30.08;18.23;;;;;;;3.03;77.61;101385.13;4999039;28;20034;-67
2021/04/14 07:19:18;;;;;;;23.45;17.20;;;;;;;3.03;77.28;101387.81;4990594;28;20065;-68
2021/04/14 07:21:53;;;;;;;28.85;17.77;;;;;;;3.06;77.46;101376.84;4987708;28;20141;-67
2021/04/14 07:24:34;;;;;;;31.33;17.00;;;;;;;3.07;77.12;101383.84;4994562;28;20524;-65
2021/04/14 07:27:24;;;;;;;26.13;17.17;;;;;;;3.10;77.32;101388.88;4979598;28;20125;-65
2021/04/14 07:29:56;;;;;;;30.10;17.23;;;;;;;3.16;76.27;101384.75;4983996;28;20034;-65
2021/04/14 07:32:43;;;;;;;29.98;16.33;;;;;;;3.26;75.47;101385.50;4971458;28;20038;-66
2021/04/14 07:35:13;;;;;;;31.60;15.88;;;;;;;3.32;74.64;101389.38;4980745;28;20037;-66
2021/04/14 07:37:53;;;;;;;33.13;16.00;;;;;;;3.26;75.05;101382.84;4977373;28;20076;-66
2021/04/14 07:40:49;;;;;;;28.95;16.52;;;;;;;3.43;74.58;101386.47;4976037;28;20065;-65
2021/04/14 07:43:19;;;;;;;27.80;15.63;;;;;;;3.47;74.25;101390.50;4979550;28;20039;-66
2021/04/14 07:45:47;;;;;;;31.88;15.43;;;;;;;3.43;74.59;101386.47;4979743;28;20035;-65
2021/04/14 07:48:27;;;;;;;30.55;15.98;;;;;;;3.53;73.73;101386.38;4979040;28;20085;-65
2021/04/14 07:51:03;;;;;;;30.65;16.40;;;;;;;3.57;73.61;101384.25;4983803;28;20068;-65
2021/04/14 07:53:36;;;;;;;26.58;16.45;;;;;;;3.58;73.32;101384.09;4979477;28;20078;-65
2021/04/14 07:56:24;;;;;;;22.92;15.73;;;;;;;3.62;73.23;101381.94;4981513;28;20045;-65
2021/04/14 07:58:59;;;;;;;32.03;15.95;;;;;;;3.66;73.03;101397.47;4976622;28;20408;-66
2021/04/14 08:01:30;;;;;;;29.02;16.15;;;;;;;3.80;72.74;101377.41;4977905;28;20550;-66
2021/04/14 08:04:18;;;;;;;28.00;15.73;;;;;;;3.84;71.33;101377.09;4976899;28;20179;-65
2021/04/14 08:06:44;;;;;;;27.70;14.75;;;;;;;3.87;71.34;101380.28;4974231;28;20054;-65
2021/04/14 08:09:16;;;;;;;30.75;15.93;;;;;;;3.91;70.01;101378.97;4985845;28;20039;-64
2021/04/14 08:11:42;;;;;;;30.05;16.27;;;;;;;4.09;70.09;101386.88;4991667;28;20038;-64
2021/04/14 08:14:22;;;;;;;37.13;16.40;;;;;;;4.27;68.82;101385.13;4983992;28;20625;-63
2021/04/14 08:16:53;;;;;;;38.38;18.35;;;;;;;4.35;68.70;101387.84;4978801;28;20071;-64
2021/04/14 08:19:19;;;;;;;39.58;17.65;;;;;;;4.47;68.38;101391.88;4989605;28;21315;-65
2021/04/14 08:21:59;;;;;;;34.70;15.90;;;;;;;4.49;68.98;101392.56;4998661;28;20511;-65
2021/04/14 08:24:36;;;;;;;32.92;17.15;;;;;;;4.47;68.64;101380.38;4987984;28;20038;-64
2021/04/14 08:27:32;;;;;;;37.00;17.88;;;;;;;4.57;68.14;101388.25;4980243;28;20488;-65
2021/04/14 08:30:06;;;;;;;36.00;18.05;;;;;;;4.71;68.09;101384.13;4982831;28;20464;-65
2021/04/14 08:32:45;;;;;;;50.42;20.15;;;;;;;4.79;64.92;101394.81;4985829;28;20039;-66
2021/04/14 08:35:26;;;;;;;48.20;19.05;;;;;;;4.84;65.57;101389.81;4993332;28;20528;-63
2021/04/14 08:38:12;;;;;;;39.92;19.38;;;;;;;4.77;65.40;101400.31;4988059;28;20030;-64
2021/04/14 08:40:54;;;;;;;45.85;19.40;;;;;;;5.03;63.29;101409.22;4989264;28;20400;-64
2021/04/14 08:43:32;;;;;;;34.17;17.38;;;;;;;5.00;62.37;101399.69;4990130;28;20042;-65
2021/04/14 08:46:21;;;;;;;37.28;16.40;;;;;;;5.13;61.05;101402.69;4980991;28;20403;-63
2021/04/14 08:48:54;;;;;;;46.58;17.67;;;;;;;5.16;61.83;101401.56;4981994;28;20042;-64
2021/04/14 08:51:20;;;;;;;45.97;17.42;;;;;;;5.23;61.17;101399.88;4994852;28;20493;-65
2021/04/14 08:53:47;;;;;;;43.58;17.13;;;;;;;5.55;61.71;101400.06;4991831;28;20034;-66
2021/04/14 08:56:13;;;;;;;36.35;14.77;;;;;;;5.75;57.07;101400.53;4986981;28;20035;-64
2021/04/14 08:58:41;;;;;;;36.30;15.77;;;;;;;5.53;57.59;101392.19;4983956;28;20039;-66
2021/04/14 09:01:14;;;;;;;29.85;14.27;;;;;;;5.74;57.03;101398.03;4979950;28;20385;-64
2021/04/14 09:03:42;;;;;;;29.83;12.83;;;;;;;5.59;54.05;101400.53;4979025;28;20142;-63
2021/04/14 09:06:09;;;;;;;22.48;13.02;;;;;;;5.60;54.92;101399.53;4978973;28;20027;-63
2021/04/14 09:08:38;;;;;;;27.20;12.93;;;;;;;5.68;55.56;101389.69;4981695;28;20041;-64
2021/04/14 09:11:16;;;;;;;33.17;14.85;;;;;;;6.00;57.68;101396.00;4985449;28;20041;-65
2021/04/14 09:13:44;;;;;;;35.65;13.93;;;;;;;6.14;56.68;101399.78;4981260;28;20030;-65
2021/04/14 09:16:12;;;;;;;37.83;14.15;;;;;;;6.13;55.32;101394.63;4984199;28;20037;-63
2021/04/14 09:18:41;;;;;;;25.00;12.45;;;;;;;6.09;52.85;101394.13;4979109;28;20034;-65
2021/04/14 09:21:09;;;;;;;44.55;13.70;;;;;;;6.29;54.36;101391.06;4987294;28;20060;-65
2021/04/14 09:23:39;;;;;;;31.52;11.60;;;;;;;6.43;51.71;101402.88;4988290;28;20041;-65
2021/04/14 09:26:15;;;;;;;39.47;12.82;;;;;;;6.46;52.22;101397.16;4982981;28;20059;-65
2021/04/14 09:28:50;;;;;;;33.35;11.63;;;;;;;6.58;52.26;101398.44;4994328;28;20038;-65
2021/04/14 09:31:41;;;;;;;40.05;12.15;;;;;;;6.83;51.66;101400.97;4992023;28;20030;-66
2021/04/14 09:34:30;;;;;;;28.30;11.45;;;;;;;6.43;51.10;101401.03;4991867;28;20569;-65
2021/04/14 09:37:07;;;;;;;21.33;11.60;;;;;;;6.61;50.80;101399.09;4991499;28;20145;-64
2021/04/14 09:39:40;;;;;;;34.45;12.25;;;;;;;6.85;50.81;101398.13;4975588;28;20483;-65
2021/04/14 09:42:15;;;;;;;26.02;10.40;;;;;;;6.86;48.38;101403.31;4983286;28;20468;-65
2021/04/14 09:44:46;;;;;;;15.45;6.13;;;;;;;6.89;45.44;101402.13;4983296;28;20074;-65
2021/04/14 09:47:28;;;;;;;18.00;9.50;;;;;;;6.93;46.75;101397.25;4988296;28;20034;-65
2021/04/14 09:49:59;;;;;;;19.80;9.43;;;;;;;7.06;47.26;101400.16;4986683;28;20026;-65
2021/04/14 09:52:32;;;;;;;33.75;9.38;;;;;;;7.00;48.02;101396.38;4982135;28;20043;-65
2021/04/14 09:55:35;;;;;;;23.13;9.67;;;;;;;6.84;49.27;101394.63;4989528;28;20030;-65
2021/04/14 09:58:07;;;;;;;23.65;9.63;;;;;;;7.08;47.85;101400.00;4986090;28;20824;-66
2021/04/14 10:00:41;;;;;;;17.13;8.77;;;;;;;6.84;48.43;101399.97;4974040;28;20062;-68
2021/04/14 10:03:28;;;;;;;21.08;7.80;;;;;;;6.87;45.70;101399.63;4986758;28;20572;-66
2021/04/14 10:05:56;;;;;;;16.48;7.35;;;;;;;6.64;45.46;101399.59;4989112;28;20034;-65
2021/04/14 10:08:22;;;;;;;12.00;6.80;;;;;;;6.78;45.52;101395.31;4982263;28;20057;-65
2021/04/14 10:10:50;;;;;;;16.00;6.57;;;;;;;7.14;45.78;101392.09;4996660;28;20049;-66
2021/04/14 10:13:18;;;;;;;14.70;5.93;;;;;;;7.35;44.83;101389.75;4984711;28;20035;-65
2021/04/14 10:15:46;;;;;;;15.23;5.53;;;;;;;7.40;43.93;101382.00;4981422;28;20431;-65
2021/04/14 10:18:21;;;;;;;13.88;6.18;;;;;;;7.59;44.37;101389.53;4978130;28;20039;-65
2021/04/14 10:20:48;;;;;;;10.80;6.32;;;;;;;7.47;43.80;101383.78;4638784;28;10000302;-65
2021/04/14 10:23:18;;;;;;;17.02;7.68;;;;;;;7.60;45.11;101385.81;4988824;28;20034;-65
2021/04/14 10:25:45;;;;;;;11.35;5.95;;;;;;;7.65;46.04;101387.97;4984784;28;20101;-65
2021/04/14 10:28:22;;;;;;;13.98;5.38;;;;;;;7.65;45.92;101389.81;4987905;28;20026;-65
2021/04/14 10:31:03;;;;;;;20.08;8.35;;;;;;;7.78;45.62;101389.19;4991172;28;20030;-65
2021/04/14 10:33:29;;;;;;;18.65;7.03;;;;;;;8.01;46.54;101381.06;4985656;28;20031;-65
2021/04/14 10:35:55;;;;;;;9.32;5.28;;;;;;;7.81;45.16;101383.47;4989282;28;20038;-65
2021/04/14 10:38:29;;;;;;;11.07;6.10;;;;;;;8.04;45.40;101394.94;4992905;28;20031;-65
2021/04/14 10:40:56;;;;;;;19.88;6.75;;;;;;;7.94;46.57;101391.69;4985480;28;20035;-65
2021/04/14 10:43:24;;;;;;;10.90;6.25;;;;;;;7.67;46.26;101388.63;4985090;28;20138;-65
2021/04/14 10:45:52;;;;;;;10.77;4.97;;;;;;;7.90;45.82;101383.16;4984576;28;20035;-65
2021/04/14 10:48:18;;;;;;;9.40;5.43;;;;;;;8.31;44.54;101381.06;4980232;28;20027;-63
2021/04/14 10:50:45;;;;;;;11.70;5.10;;;;;;;8.23;43.77;101386.53;4982778;28;20023;-64
2021/04/14 10:53:12;;;;;;;18.90;4.78;;;;;;;8.28;45.16;101397.53;4979509;28;20050;-63
2021/04/14 10:55:45;;;;;;;16.23;5.18;;;;;;;8.12;44.49;101394.03;4984943;28;20022;-65
2021/04/14 10:58:18;;;;;;;10.80;5.10;;;;;;;8.03;45.21;101382.53;4982446;28;20038;-66
2021/04/14 11:00:47;;;;;;;13.45;5.95;;;;;;;8.19;44.52;101383.38;4983839;28;20275;-65
2021/04/14 11:03:17;;;;;;;10.32;4.20;;;;;;;8.47;44.34;101375.47;4978871;28;20039;-65
2021/04/14 11:06:10;;;;;;;10.77;4.03;;;;;;;8.85;43.03;101382.53;4982894;28;20042;-65
2021/04/14 11:08:37;;;;;;;10.10;4.10;;;;;;;8.85;41.91;101387.06;4978353;28;20043;-64
2021/04/14 11:11:04;;;;;;;7.05;4.03;;;;;;;8.95;42.20;101381.41;4986828;28;20030;-64
2021/04/14 11:13:33;;;;;;;13.07;4.18;;;;;;;8.87;41.51;101380.50;4983509;28;20046;-66
2021/04/14 11:15:59;;;;;;;13.68;4.43;;;;;;;9.14;41.45;101382.59;4982241;28;20058;-66
2021/04/14 11:18:34;;;;;;;12.55;3.83;;;;;;;9.43;41.29;101361.94;4982511;28;20093;-65
2021/04/14 11:23:33;;;;;;;17.95;4.45;;;;;;;9.50;41.20;101369.06;4987338;28;20487;-65
2021/04/14 11:26:20;;;;;;;15.10;4.70;;;;;;;9.51;41.42;101365.34;4983182;28;20454;-64
2021/04/14 11:28:55;;;;;;;7.88;4.20;;;;;;;9.34;40.44;101364.78;4986445;28;20042;-64
2021/04/14 11:31:43;;;;;;;8.30;4.15;;;;;;;8.96;40.00;101369.63;4985245;28;20392;-65
2021/04/14 11:34:13;;;;;;;9.13;3.40;;;;;;;9.51;40.18;101369.88;4987231;28;20034;-64